Hauptseite
METAR-TAF:

METAR-TAF

Flughäfen :

London Luton Airport

Luton, England

Breite: 51-52N, Länge: 000-22W, Höhe: 160 m

Beobachtung

Neuester Wetterbericht von vor 27 Minuten, um 21:20 UTC
Wind 12 kt aus West
Temperatur 19°C
Luftfeuchtigkeit 73%
Luftdruck 1013 hPa
Sichtweite 10 km oder mehr

METAR: EGGW 162120Z AUTO 26012KT 9999 NCD 19/14 Q1013

Zeit: 22:47 (21:47 UTC)

Prognose

Neuester Wetterbericht von vor 4 Stunden und 51 Minuten, um 16:56 UTC
Gültige Prognose vom 16 um 18 UTC bis 17 um 18 UTC
Wind 7 kt aus West
Sichtweite 10 km oder mehr
Leicht bewölkt in der Höhe von 4500 ft

TAF: EGGW 161656Z 1618/1718 27007KT 9999 FEW045

Wetterbeobachtungen und Prognosen von mehr als 4000 Flughäfen (METAR und TAF Bericht).

Die verfügbaren Stationen werden durch gelbe und rote Markierungen auf der Karte dargestellt.

Führen Sie die Maus auf sie, um den Namen der Station zu sehen.

Darauf klicken, um die Beobachtung von Wetterbeobachtungen und Prognosen zu sehen.

Um die Karte zu ändern : klicken Sie auf den grünen Tasten mit einem schwarzen Kreuz Zum Vergrößern, auf den grünen Button mit einem Gedankenstrich zu verkleinern, oder auf die grünen Pfeile für benachbarte Karten.


METAR-TAF: